createdAt,value
2019-03-24T00:02:00.074Z,40.55
2019-03-24T00:04:28.603Z,39.70
2019-03-24T00:06:57.069Z,40.35
2019-03-24T00:09:25.547Z,43.60
2019-03-24T00:11:54.004Z,43.87
2019-03-24T00:14:22.459Z,37.60
2019-03-24T00:16:51.016Z,40.05
2019-03-24T00:19:19.522Z,41.13
2019-03-24T00:21:48.256Z,39.10
2019-03-24T00:24:16.681Z,40.10
2019-03-24T00:26:45.102Z,38.60
2019-03-24T00:29:13.575Z,41.95
2019-03-24T00:31:41.994Z,39.67
2019-03-24T00:34:10.449Z,43.05
2019-03-24T00:36:38.929Z,38.23
2019-03-24T00:39:07.719Z,33.23
2019-03-24T00:41:36.151Z,38.98
2019-03-24T00:44:04.721Z,40.15
2019-03-24T00:46:33.255Z,39.70
2019-03-24T00:49:01.685Z,37.10
2019-03-24T00:51:30.195Z,36.85
2019-03-24T00:53:58.626Z,34.00
2019-03-24T00:56:27.148Z,37.45
2019-03-24T00:58:55.999Z,36.93
2019-03-24T01:01:24.512Z,38.23
2019-03-24T01:03:52.931Z,38.23
2019-03-24T01:06:21.702Z,36.17
2019-03-24T01:08:50.316Z,34.65
2019-03-24T01:11:18.840Z,32.53
2019-03-24T01:13:48.303Z,38.00
2019-03-24T01:16:16.759Z,36.10
2019-03-24T01:18:45.252Z,37.90
2019-03-24T01:21:13.794Z,38.10
2019-03-24T01:23:42.289Z,36.00
2019-03-24T01:26:10.720Z,41.53
2019-03-24T01:28:39.176Z,34.83
2019-03-24T01:31:07.667Z,41.60
2019-03-24T01:33:36.121Z,35.15
2019-03-24T01:36:04.625Z,42.40
2019-03-24T01:38:33.051Z,34.85
2019-03-24T01:41:01.565Z,39.53
2019-03-24T01:43:30.220Z,38.85
2019-03-24T01:45:59.048Z,38.75
2019-03-24T01:48:27.571Z,40.38
2019-03-24T01:50:56.060Z,36.20
2019-03-24T01:53:24.538Z,39.48
2019-03-24T01:55:53.195Z,37.25
2019-03-24T01:58:21.620Z,39.35
2019-03-24T02:00:50.388Z,39.63
2019-03-24T02:03:18.860Z,35.73
2019-03-24T02:05:47.283Z,38.55
2019-03-24T02:08:15.750Z,36.77
2019-03-24T02:10:44.244Z,36.35
2019-03-24T02:13:12.706Z,36.23
2019-03-24T02:15:41.191Z,37.25
2019-03-24T02:18:09.853Z,38.35
2019-03-24T02:20:38.317Z,37.23
2019-03-24T02:23:06.791Z,40.12
2019-03-24T02:25:35.239Z,37.80
2019-03-24T02:28:03.793Z,40.63
2019-03-24T02:30:32.321Z,36.60
2019-03-24T02:33:00.835Z,34.92
2019-03-24T02:35:29.256Z,39.15
2019-03-24T02:37:57.945Z,38.73
2019-03-24T02:40:26.375Z,38.40
2019-03-24T02:42:54.821Z,39.42
2019-03-24T02:45:23.252Z,38.42
2019-03-24T02:47:51.762Z,41.80
2019-03-24T02:50:20.291Z,41.65
2019-03-24T02:52:48.780Z,39.23
2019-03-24T02:55:17.254Z,39.60
2019-03-24T02:57:45.764Z,41.10
2019-03-24T03:00:15.135Z,41.37
2019-03-24T03:02:43.574Z,39.25
2019-03-24T03:05:13.162Z,38.90
2019-03-24T03:07:41.654Z,37.38
2019-03-24T03:10:10.689Z,39.35
2019-03-24T03:12:39.284Z,38.10
2019-03-24T03:15:08.719Z,37.88
2019-03-24T03:17:37.281Z,37.38
2019-03-24T03:20:07.526Z,39.45
2019-03-24T03:22:36.009Z,37.13
2019-03-24T03:25:09.330Z,38.35
2019-03-24T03:27:37.756Z,42.03
2019-03-24T03:30:09.922Z,39.33
2019-03-24T03:32:38.480Z,36.98
2019-03-24T03:35:08.018Z,41.75
2019-03-24T03:37:36.697Z,37.42
2019-03-24T03:40:07.289Z,38.28
2019-03-24T03:42:36.258Z,38.15
2019-03-24T03:45:05.919Z,40.10
2019-03-24T03:47:34.374Z,40.20
2019-03-24T03:50:02.848Z,42.13
2019-03-24T03:52:31.300Z,39.75
2019-03-24T03:54:59.723Z,36.80
2019-03-24T03:57:28.237Z,40.90
2019-03-24T03:59:56.687Z,39.35
2019-03-24T04:02:25.186Z,40.12
2019-03-24T04:04:53.954Z,42.40
2019-03-24T04:07:22.390Z,41.73
2019-03-24T04:09:50.832Z,39.78
2019-03-24T04:12:19.495Z,43.00
2019-03-24T04:14:47.971Z,40.10
2019-03-24T04:17:16.433Z,40.67
2019-03-24T04:19:44.931Z,44.83
2019-03-24T04:22:13.341Z,43.15
2019-03-24T04:24:41.813Z,43.20
2019-03-24T04:27:10.234Z,42.75
2019-03-24T04:29:38.665Z,44.95
2019-03-24T04:32:07.180Z,42.62
2019-03-24T04:34:35.644Z,45.28
2019-03-24T04:37:04.071Z,40.60
2019-03-24T04:39:32.795Z,42.23
2019-03-24T04:42:01.219Z,46.30
2019-03-24T04:44:29.640Z,40.28
2019-03-24T04:46:58.101Z,44.18
2019-03-24T04:49:26.533Z,43.05
2019-03-24T04:51:54.985Z,43.35
2019-03-24T04:54:23.409Z,46.48
2019-03-24T04:56:51.875Z,47.13
2019-03-24T04:59:20.300Z,46.20
2019-03-24T05:01:48.788Z,46.68
2019-03-24T05:04:17.331Z,45.58
2019-03-24T05:06:45.896Z,42.33
2019-03-24T05:09:15.473Z,48.68
2019-03-24T05:11:43.949Z,46.13
2019-03-24T05:14:12.424Z,47.20
2019-03-24T05:16:40.849Z,42.00
2019-03-24T05:19:10.969Z,50.30
2019-03-24T05:21:39.405Z,41.75
2019-03-24T05:24:07.842Z,49.63
2019-03-24T05:26:36.285Z,47.83
2019-03-24T05:29:04.877Z,48.30
2019-03-24T05:31:33.326Z,46.42
2019-03-24T05:34:01.821Z,47.03
2019-03-24T05:36:30.274Z,46.33
2019-03-24T05:38:58.697Z,47.35
2019-03-24T05:41:27.187Z,43.33
2019-03-24T05:43:55.713Z,49.33
2019-03-24T05:46:24.147Z,43.05
2019-03-24T05:48:52.580Z,47.08
2019-03-24T05:51:21.044Z,46.40
2019-03-24T05:53:49.462Z,46.33
2019-03-24T05:56:17.942Z,44.73
2019-03-24T05:58:46.464Z,42.20
2019-03-24T06:01:14.887Z,42.90
2019-03-24T06:03:43.427Z,45.55
2019-03-24T06:06:11.890Z,49.13
2019-03-24T06:08:40.330Z,43.00
2019-03-24T06:11:08.765Z,39.18
2019-03-24T06:13:37.271Z,39.10
2019-03-24T06:16:05.870Z,41.28
2019-03-24T06:18:34.315Z,41.88
2019-03-24T06:21:02.760Z,42.40
2019-03-24T06:23:31.184Z,39.95
2019-03-24T06:25:59.663Z,44.03
2019-03-24T06:28:28.089Z,44.45
2019-03-24T06:30:56.528Z,43.50
2019-03-24T06:33:25.047Z,38.95
2019-03-24T06:35:53.513Z,42.40
2019-03-24T06:38:22.010Z,45.17
2019-03-24T06:40:50.495Z,46.42
2019-03-24T06:43:19.081Z,45.25
2019-03-24T06:45:47.571Z,45.70
2019-03-24T06:48:16.018Z,52.48
2019-03-24T06:50:44.473Z,51.58
2019-03-24T06:53:12.909Z,46.68
2019-03-24T06:55:41.500Z,46.92
2019-03-24T06:58:09.998Z,43.42
2019-03-24T07:00:38.521Z,44.08
2019-03-24T07:03:07.044Z,49.65
2019-03-24T07:05:35.557Z,48.70
2019-03-24T07:08:04.100Z,48.00
2019-03-24T07:10:32.530Z,76.47
2019-03-24T07:13:01.029Z,77.67
2019-03-24T07:15:30.013Z,70.83
2019-03-24T07:18:08.187Z,80.50
2019-03-24T07:20:28.689Z,82.60
2019-03-24T07:22:57.197Z,80.97
2019-03-24T07:25:25.637Z,76.92
2019-03-24T07:27:56.746Z,73.33
2019-03-24T07:30:25.173Z,77.70
2019-03-24T07:32:53.630Z,78.97
2019-03-24T07:35:22.148Z,76.80
2019-03-24T07:37:50.604Z,71.60
2019-03-24T07:40:19.285Z,74.85
2019-03-24T07:42:47.824Z,73.57
2019-03-24T07:45:16.490Z,73.42
2019-03-24T07:47:44.947Z,66.67
2019-03-24T07:50:13.851Z,73.30
2019-03-24T07:52:42.276Z,70.15
2019-03-24T07:55:10.949Z,65.42
2019-03-24T07:57:39.497Z,66.55
2019-03-24T08:00:09.780Z,67.25
2019-03-24T08:02:38.267Z,67.17
2019-03-24T08:05:07.468Z,60.20
2019-03-24T08:07:36.002Z,63.50
2019-03-24T08:10:06.198Z,59.90
2019-03-24T08:12:34.707Z,64.07
2019-03-24T08:15:03.464Z,62.35
2019-03-24T08:17:31.908Z,57.13
2019-03-24T08:20:00.392Z,53.20
2019-03-24T08:22:28.933Z,62.05
2019-03-24T08:24:57.368Z,55.80
2019-03-24T08:27:25.817Z,57.78
2019-03-24T08:29:54.408Z,56.45
2019-03-24T08:32:22.901Z,53.00
2019-03-24T08:34:51.370Z,52.27
2019-03-24T08:37:19.870Z,50.80
2019-03-24T08:39:48.455Z,49.48
2019-03-24T08:42:16.925Z,46.23
2019-03-24T08:44:45.420Z,42.75
2019-03-24T08:47:13.923Z,46.68
2019-03-24T08:49:42.455Z,46.33
2019-03-24T08:52:10.963Z,44.18
2019-03-24T08:54:39.439Z,44.63
2019-03-24T08:57:07.977Z,44.13
2019-03-24T08:59:36.438Z,44.67
2019-03-24T09:02:05.023Z,48.60
2019-03-24T09:04:33.547Z,50.52
2019-03-24T09:07:02.020Z,43.98
2019-03-24T09:09:30.465Z,44.70
2019-03-24T09:11:58.922Z,42.70
2019-03-24T09:14:27.481Z,43.65
2019-03-24T09:16:55.949Z,45.12
2019-03-24T09:19:24.395Z,39.78
2019-03-24T09:21:52.863Z,43.90
2019-03-24T09:24:21.413Z,42.35
2019-03-24T09:26:49.827Z,43.65
2019-03-24T09:29:18.303Z,38.92
2019-03-24T09:31:46.825Z,41.92
2019-03-24T09:34:15.314Z,43.75
2019-03-24T09:36:43.797Z,40.12
2019-03-24T09:39:12.230Z,44.13
2019-03-24T09:41:40.802Z,41.08
2019-03-24T09:44:09.227Z,39.78
2019-03-24T09:46:37.664Z,38.98
2019-03-24T09:49:06.207Z,41.13
2019-03-24T09:51:34.637Z,38.98
2019-03-24T09:54:03.169Z,42.62
2019-03-24T09:56:31.668Z,38.28
2019-03-24T09:59:00.143Z,39.40
2019-03-24T10:01:28.571Z,38.55
2019-03-24T10:03:57.294Z,38.90
2019-03-24T10:06:25.746Z,39.18
2019-03-24T10:08:54.250Z,39.75
2019-03-24T10:11:22.703Z,37.48
2019-03-24T10:13:51.150Z,41.85
2019-03-24T10:16:19.601Z,39.70
2019-03-24T10:18:48.054Z,37.00
2019-03-24T10:21:16.498Z,36.53
2019-03-24T10:23:44.960Z,36.20
2019-03-24T10:26:13.402Z,39.60
2019-03-24T10:28:41.882Z,32.98
2019-03-24T10:31:10.319Z,31.25
2019-03-24T10:33:38.796Z,35.55
2019-03-24T10:36:07.220Z,36.23
2019-03-24T10:38:35.647Z,34.13
2019-03-24T10:41:04.261Z,34.98
2019-03-24T10:43:32.687Z,30.92
2019-03-24T10:46:02.404Z,36.28
2019-03-24T10:48:33.822Z,33.75
2019-03-24T10:51:01.062Z,34.00
2019-03-24T10:53:29.499Z,32.90
2019-03-24T10:55:58.077Z,34.25
2019-03-24T10:58:26.602Z,39.67
2019-03-24T11:00:55.034Z,39.40
2019-03-24T11:03:23.611Z,42.35
2019-03-24T11:05:52.111Z,38.20
2019-03-24T11:08:20.638Z,38.95
2019-03-24T11:10:49.116Z,34.80
2019-03-24T11:13:17.557Z,34.18
2019-03-24T11:15:46.068Z,33.58
2019-03-24T11:18:14.638Z,33.05
2019-03-24T11:20:43.142Z,33.53
2019-03-24T11:23:12.394Z,35.60
2019-03-24T11:25:40.889Z,34.88
2019-03-24T11:28:09.337Z,31.10
2019-03-24T11:30:37.821Z,32.50
2019-03-24T11:33:06.398Z,31.33
2019-03-24T11:35:34.846Z,37.50
2019-03-24T11:38:03.380Z,33.65
2019-03-24T11:40:31.901Z,33.78
2019-03-24T11:43:00.341Z,28.87
2019-03-24T11:45:28.895Z,35.83
2019-03-24T11:47:57.323Z,32.93
2019-03-24T11:50:25.783Z,32.65
2019-03-24T11:52:54.293Z,33.67
2019-03-24T11:55:22.774Z,38.48
2019-03-24T11:57:51.592Z,31.97
2019-03-24T12:00:23.240Z,36.45
2019-03-24T12:02:51.820Z,35.95
2019-03-24T12:05:20.316Z,32.45
2019-03-24T12:07:48.768Z,37.20
2019-03-24T12:10:17.386Z,34.08
2019-03-24T12:12:45.888Z,32.15
2019-03-24T12:15:14.485Z,34.03
2019-03-24T12:17:42.986Z,31.57
2019-03-24T12:20:11.865Z,34.75
2019-03-24T12:22:40.350Z,33.75
2019-03-24T12:25:08.915Z,33.40
2019-03-24T12:27:37.515Z,33.65
2019-03-24T12:30:08.683Z,33.02
2019-03-24T12:32:37.285Z,32.85
2019-03-24T12:35:07.588Z,33.25
2019-03-24T12:37:36.159Z,35.90
2019-03-24T12:40:07.262Z,33.15
2019-03-24T12:42:35.709Z,33.55
2019-03-24T12:45:08.272Z,35.65
2019-03-24T12:47:36.813Z,34.50
2019-03-24T12:50:09.495Z,30.55
2019-03-24T12:52:38.339Z,31.90
2019-03-24T12:55:07.406Z,31.60
2019-03-24T12:57:35.839Z,35.68
2019-03-24T13:00:06.947Z,30.75
2019-03-24T13:02:35.438Z,30.50
2019-03-24T13:05:05.816Z,33.83
2019-03-24T13:07:34.359Z,30.25
2019-03-24T13:10:03.167Z,27.07
2019-03-24T13:12:31.695Z,29.82
2019-03-24T13:15:00.422Z,27.32
2019-03-24T13:17:28.992Z,25.23
2019-03-24T13:19:57.915Z,21.70
2019-03-24T13:22:26.372Z,21.62
2019-03-24T13:24:54.839Z,19.62
2019-03-24T13:27:23.310Z,19.90
2019-03-24T13:29:51.703Z,13.83
2019-03-24T13:32:20.247Z,17.50
2019-03-24T13:34:48.683Z,17.67
2019-03-24T13:37:17.225Z,22.65
2019-03-24T13:39:45.669Z,20.43
2019-03-24T13:42:14.241Z,19.05
2019-03-24T13:44:42.837Z,23.32
2019-03-24T13:47:11.298Z,24.75
2019-03-24T13:49:39.820Z,21.85
2019-03-24T13:52:08.420Z,21.97
2019-03-24T13:54:37.008Z,26.77
2019-03-24T13:57:05.584Z,25.77
2019-03-24T13:59:34.217Z,26.07
2019-03-24T14:02:02.798Z,28.98
2019-03-24T14:04:31.305Z,24.40
2019-03-24T14:06:59.887Z,21.55
2019-03-24T14:09:28.316Z,22.37
2019-03-24T14:11:56.868Z,25.15
2019-03-24T14:14:25.303Z,20.02
2019-03-24T14:16:53.837Z,22.17
2019-03-24T14:19:22.550Z,18.12
2019-03-24T14:21:51.002Z,18.67
2019-03-24T14:24:19.518Z,24.47
2019-03-24T14:26:48.072Z,24.50
2019-03-24T14:29:16.526Z,27.42
2019-03-24T14:31:44.991Z,28.80
2019-03-24T14:34:13.459Z,23.67
2019-03-24T14:36:41.882Z,27.73
2019-03-24T14:39:10.499Z,32.30
2019-03-24T14:41:39.028Z,28.55
2019-03-24T14:44:07.434Z,28.67
2019-03-24T14:46:35.887Z,28.38
2019-03-24T14:49:04.469Z,33.05
2019-03-24T14:51:32.994Z,30.12
2019-03-24T14:54:01.500Z,29.82
2019-03-24T14:56:30.027Z,26.25
2019-03-24T14:58:58.527Z,34.05
2019-03-24T15:01:26.998Z,29.48
2019-03-24T15:03:55.552Z,30.27
2019-03-24T15:06:24.142Z,29.10
2019-03-24T15:08:52.596Z,30.50
2019-03-24T15:11:21.127Z,31.62
2019-03-24T15:13:49.587Z,34.78
2019-03-24T15:16:18.023Z,30.60
2019-03-24T15:18:46.494Z,28.10
2019-03-24T15:21:15.971Z,26.23
2019-03-24T15:23:44.518Z,29.77
2019-03-24T15:26:12.995Z,30.17
2019-03-24T15:28:41.426Z,25.65
2019-03-24T15:31:09.942Z,27.90
2019-03-24T15:33:38.523Z,29.07
2019-03-24T15:36:07.305Z,26.02
2019-03-24T15:38:35.832Z,26.33
2019-03-24T15:41:04.506Z,28.90
2019-03-24T15:43:32.991Z,28.45
2019-03-24T15:46:01.508Z,29.32
2019-03-24T15:48:30.005Z,28.10
2019-03-24T15:50:58.469Z,26.17
2019-03-24T15:53:26.897Z,30.08
2019-03-24T15:55:55.403Z,27.50
2019-03-24T15:58:23.868Z,27.82
2019-03-24T16:00:52.441Z,31.40
2019-03-24T16:03:20.950Z,34.48
2019-03-24T16:05:49.570Z,30.90
2019-03-24T16:08:18.180Z,29.60
2019-03-24T16:10:46.680Z,30.43
2019-03-24T16:13:15.154Z,32.70
2019-03-24T16:15:45.602Z,30.10
2019-03-24T16:18:14.328Z,31.52
2019-03-24T16:20:42.825Z,32.17
2019-03-24T16:23:11.334Z,29.55
2019-03-24T16:25:39.869Z,30.32
2019-03-24T16:28:08.438Z,32.23
2019-03-24T16:30:36.998Z,35.43
2019-03-24T16:33:05.954Z,36.05
2019-03-24T16:35:34.407Z,36.30
2019-03-24T16:38:02.938Z,41.73
2019-03-24T16:40:31.449Z,43.68
2019-03-24T16:42:59.915Z,44.77
2019-03-24T16:45:30.031Z,46.33
2019-03-24T16:47:58.535Z,46.50
2019-03-24T16:50:27.178Z,49.88
2019-03-24T16:52:55.688Z,48.08
2019-03-24T16:55:24.202Z,64.62
2019-03-24T16:57:53.211Z,55.58
2019-03-24T17:00:22.004Z,47.83
2019-03-24T17:02:50.507Z,51.23
2019-03-24T17:05:19.126Z,50.43
2019-03-24T17:07:47.728Z,50.92
2019-03-24T17:10:16.331Z,50.03
2019-03-24T17:12:44.931Z,46.42
2019-03-24T17:15:14.001Z,49.67
2019-03-24T17:17:42.512Z,47.03
2019-03-24T17:20:11.137Z,49.10
2019-03-24T17:22:39.564Z,51.08
2019-03-24T17:25:08.837Z,50.35
2019-03-24T17:27:37.371Z,47.90
2019-03-24T17:30:08.897Z,50.05
2019-03-24T17:32:37.447Z,45.23
2019-03-24T17:35:07.447Z,46.55
2019-03-24T17:37:35.940Z,46.95
2019-03-24T17:40:09.490Z,52.45
2019-03-24T17:42:38.081Z,44.73
2019-03-24T17:45:08.573Z,50.73
2019-03-24T17:47:37.116Z,49.33
2019-03-24T17:50:11.908Z,45.90
2019-03-24T17:52:39.745Z,48.58
2019-03-24T17:55:08.468Z,49.42
2019-03-24T17:57:37.035Z,51.18
2019-03-24T18:00:08.602Z,46.85
2019-03-24T18:02:37.247Z,55.12
2019-03-24T18:05:07.839Z,46.25
2019-03-24T18:07:36.289Z,47.10
2019-03-24T18:10:05.629Z,43.63
2019-03-24T18:12:34.160Z,43.98
2019-03-24T18:15:02.708Z,47.27
2019-03-24T18:17:31.270Z,45.83
2019-03-24T18:20:00.345Z,40.75
2019-03-24T18:22:28.881Z,45.45
2019-03-24T18:24:57.338Z,42.85
2019-03-24T18:27:25.957Z,46.42
2019-03-24T18:29:54.403Z,42.62
2019-03-24T18:32:23.289Z,44.85
2019-03-24T18:34:51.880Z,44.08
2019-03-24T18:37:20.520Z,46.10
2019-03-24T18:39:49.015Z,41.98
2019-03-24T18:42:17.521Z,43.30
2019-03-24T18:44:46.094Z,43.23
2019-03-24T18:47:14.623Z,43.40
2019-03-24T18:49:43.198Z,41.28
2019-03-24T18:52:22.060Z,40.75
2019-03-24T18:54:42.271Z,43.05
2019-03-24T18:57:10.782Z,38.45
2019-03-24T18:59:39.585Z,40.05
2019-03-24T19:02:08.052Z,39.65
2019-03-24T19:04:36.484Z,41.85
2019-03-24T19:07:05.091Z,43.30
2019-03-24T19:09:33.536Z,41.28
2019-03-24T19:12:02.012Z,43.38
2019-03-24T19:14:30.429Z,44.83
2019-03-24T19:16:58.996Z,46.30
2019-03-24T19:19:27.539Z,51.25
2019-03-24T19:21:56.129Z,48.65
2019-03-24T19:24:24.638Z,46.05
2019-03-24T19:26:53.058Z,45.88
2019-03-24T19:29:21.508Z,40.55
2019-03-24T19:31:49.963Z,41.85
2019-03-24T19:34:18.391Z,40.65
2019-03-24T19:36:47.833Z,43.90
2019-03-24T19:39:16.337Z,51.15
2019-03-24T19:41:44.923Z,42.00
2019-03-24T19:44:13.471Z,43.73
2019-03-24T19:46:41.924Z,40.03
2019-03-24T19:49:10.414Z,38.70
2019-03-24T19:51:39.002Z,42.15
2019-03-24T19:54:07.449Z,45.05
2019-03-24T19:56:35.962Z,47.27
2019-03-24T19:59:04.484Z,43.13
2019-03-24T20:01:32.964Z,43.60
2019-03-24T20:04:01.411Z,45.17
2019-03-24T20:06:29.847Z,46.80
2019-03-24T20:08:58.327Z,45.17
2019-03-24T20:11:27.071Z,47.40
2019-03-24T20:13:55.565Z,47.03
2019-03-24T20:16:24.065Z,42.65
2019-03-24T20:18:52.823Z,49.48
2019-03-24T20:21:21.254Z,46.80
2019-03-24T20:23:49.766Z,47.53
2019-03-24T20:26:18.300Z,58.83
2019-03-24T20:28:46.800Z,141.45
2019-03-24T20:31:15.382Z,175.25
2019-03-24T20:33:44.073Z,131.43
2019-03-24T20:36:12.494Z,110.80
2019-03-24T20:38:41.018Z,114.05
2019-03-24T20:41:09.531Z,75.67
2019-03-24T20:43:37.955Z,57.13
2019-03-24T20:46:06.454Z,82.22
2019-03-24T20:48:34.995Z,71.57
2019-03-24T20:51:03.513Z,58.48
2019-03-24T20:53:32.022Z,47.85
2019-03-24T20:56:00.526Z,48.40
2019-03-24T20:58:29.038Z,43.75
2019-03-24T21:00:57.552Z,45.63
2019-03-24T21:03:26.287Z,49.48
2019-03-24T21:05:56.420Z,47.93
2019-03-24T21:08:24.925Z,49.42
2019-03-24T21:10:53.497Z,52.55
2019-03-24T21:13:21.944Z,51.33
2019-03-24T21:15:51.930Z,55.40
2019-03-24T21:18:20.474Z,51.13
2019-03-24T21:20:49.142Z,52.98
2019-03-24T21:23:28.857Z,52.60
2019-03-24T21:25:47.829Z,57.23
2019-03-24T21:28:19.213Z,47.88
2019-03-24T21:30:47.740Z,52.73
2019-03-24T21:33:16.165Z,46.83
2019-03-24T21:35:44.711Z,50.90
2019-03-24T21:38:13.266Z,53.42
2019-03-24T21:40:41.771Z,43.73
2019-03-24T21:43:10.244Z,58.15
2019-03-24T21:45:38.801Z,51.58
2019-03-24T21:48:07.474Z,59.40
2019-03-24T21:50:35.890Z,62.95
2019-03-24T21:53:04.575Z,62.13
2019-03-24T21:55:33.066Z,55.88
2019-03-24T21:58:01.760Z,66.22
2019-03-24T22:00:34.785Z,63.60
2019-03-24T22:03:03.379Z,65.67
2019-03-24T22:05:31.814Z,74.55
2019-03-24T22:08:00.330Z,67.08
2019-03-24T22:10:28.856Z,68.95
2019-03-24T22:12:57.394Z,67.40
2019-03-24T22:15:25.889Z,65.87
2019-03-24T22:17:54.371Z,59.23
2019-03-24T22:20:22.868Z,62.88
2019-03-24T22:22:54.219Z,64.40
2019-03-24T22:25:22.681Z,59.85
2019-03-24T22:27:51.107Z,56.92
2019-03-24T22:30:19.911Z,58.13
2019-03-24T22:32:48.368Z,55.52
2019-03-24T22:35:16.975Z,58.70
2019-03-24T22:37:45.480Z,64.35
2019-03-24T22:40:14.185Z,61.83
2019-03-24T22:42:42.692Z,60.48
2019-03-24T22:45:11.577Z,63.30
2019-03-24T22:47:40.029Z,69.15
2019-03-24T22:50:09.095Z,63.75
2019-03-24T22:52:38.002Z,59.65
2019-03-24T22:55:08.527Z,59.93
2019-03-24T22:57:36.977Z,59.27
2019-03-24T23:00:12.147Z,62.20
2019-03-24T23:02:40.717Z,64.72
2019-03-24T23:05:09.304Z,62.65
2019-03-24T23:07:37.904Z,62.08
2019-03-24T23:10:06.411Z,60.65
2019-03-24T23:12:35.139Z,64.25
2019-03-24T23:15:05.039Z,61.37
2019-03-24T23:17:33.481Z,67.15
2019-03-24T23:20:01.960Z,63.83
2019-03-24T23:22:30.456Z,67.75
2019-03-24T23:24:58.946Z,62.62
2019-03-24T23:27:27.416Z,61.02
2019-03-24T23:29:55.837Z,61.77
2019-03-24T23:32:24.301Z,58.13
2019-03-24T23:34:52.741Z,65.03
2019-03-24T23:37:21.165Z,62.43
2019-03-24T23:39:49.634Z,62.53
2019-03-24T23:42:18.126Z,62.35
2019-03-24T23:44:46.574Z,66.62
2019-03-24T23:47:14.989Z,62.20
2019-03-24T23:49:43.482Z,64.42
2019-03-24T23:52:11.931Z,65.17
2019-03-24T23:54:40.347Z,67.70
2019-03-24T23:57:08.765Z,60.65
2019-03-24T23:59:37.220Z,60.85
